createdAt,value
2023-06-10T00:00:02.723Z,97464.00
2023-06-10T00:03:00.732Z,97468.66
2023-06-10T00:05:32.370Z,97463.73
2023-06-10T00:08:00.834Z,97463.90
2023-06-10T00:10:29.066Z,97459.88
2023-06-10T00:12:57.330Z,97461.95
2023-06-10T00:15:25.487Z,97461.02
2023-06-10T00:17:54.303Z,97465.76
2023-06-10T00:20:25.984Z,97465.46
2023-06-10T00:22:54.028Z,97465.95
2023-06-10T00:25:22.278Z,97465.64
2023-06-10T00:27:50.334Z,97466.67
2023-06-10T00:30:18.889Z,97465.16
2023-06-10T00:32:46.964Z,97470.56
2023-06-10T00:35:15.100Z,97469.27
2023-06-10T00:37:43.275Z,97466.64
2023-06-10T00:40:12.026Z,97467.84
2023-06-10T00:42:40.200Z,97474.09
2023-06-10T00:45:09.147Z,97474.33
2023-06-10T00:47:38.635Z,97475.51
2023-06-10T00:50:07.664Z,97479.76
2023-06-10T00:52:36.716Z,97479.66
2023-06-10T00:55:05.431Z,97474.05
2023-06-10T00:57:33.825Z,97468.36
2023-06-10T01:00:02.020Z,97467.37
2023-06-10T01:02:30.597Z,97468.48
2023-06-10T01:05:02.726Z,97471.58
2023-06-10T01:07:57.606Z,97472.20
2023-06-10T01:10:26.026Z,97470.95
2023-06-10T01:12:58.101Z,97470.28
2023-06-10T01:15:26.700Z,97467.92
2023-06-10T01:17:59.413Z,97465.95
2023-06-10T01:20:28.365Z,97465.94
2023-06-10T01:22:59.296Z,97464.50
2023-06-10T01:25:33.762Z,97462.86
2023-06-10T01:28:10.963Z,97461.95
2023-06-10T01:30:58.089Z,97464.67
2023-06-10T01:33:30.662Z,97472.85
2023-06-10T01:35:59.295Z,97469.77
2023-06-10T01:38:28.291Z,97469.00
2023-06-10T01:40:57.204Z,97468.05
2023-06-10T01:43:26.477Z,97469.39
2023-06-10T01:45:54.425Z,97470.14
2023-06-10T01:48:22.512Z,97465.89
2023-06-10T01:50:50.594Z,97465.73
2023-06-10T01:53:18.775Z,97464.71
2023-06-10T01:55:48.354Z,97466.98
2023-06-10T01:58:16.634Z,97462.45
2023-06-10T02:00:44.879Z,97460.56
2023-06-10T02:03:13.471Z,97459.15
2023-06-10T02:05:41.579Z,97463.02
2023-06-10T02:08:10.127Z,97462.90
2023-06-10T02:10:38.513Z,97462.02
2023-06-10T02:13:06.797Z,97462.98
2023-06-10T02:15:36.194Z,97465.00
2023-06-10T02:18:04.535Z,97465.00
2023-06-10T02:20:32.833Z,97467.59
2023-06-10T02:23:01.107Z,97465.91
2023-06-10T02:25:29.143Z,97461.60
2023-06-10T02:27:58.891Z,97468.20
2023-06-10T02:30:26.974Z,97472.99
2023-06-10T02:32:57.398Z,97477.20
2023-06-10T02:35:26.588Z,97480.39
2023-06-10T02:37:54.889Z,97486.39
2023-06-10T02:40:23.177Z,97484.54
2023-06-10T02:42:51.300Z,97482.27
2023-06-10T02:45:19.789Z,97480.66
2023-06-10T02:47:47.827Z,97483.47
2023-06-10T02:50:15.890Z,97489.89
2023-06-10T02:53:09.296Z,97485.05
2023-06-10T02:55:39.249Z,97477.63
2023-06-10T02:58:08.879Z,97482.27
2023-06-10T03:00:38.191Z,97485.59
2023-06-10T03:03:06.845Z,97484.52
2023-06-10T03:05:41.571Z,97481.27
2023-06-10T03:08:09.589Z,97480.42
2023-06-10T03:10:39.354Z,97478.80
2023-06-10T03:13:07.946Z,97480.40
2023-06-10T03:15:37.545Z,97487.13
2023-06-10T03:18:08.070Z,97484.57
2023-06-10T03:20:40.929Z,97482.58
2023-06-10T03:23:10.910Z,97484.52
2023-06-10T03:25:39.214Z,97488.88
2023-06-10T03:28:07.870Z,97486.68
2023-06-10T03:30:36.936Z,97490.27
2023-06-10T03:33:05.181Z,97486.18
2023-06-10T03:35:33.762Z,97489.05
2023-06-10T03:38:02.511Z,97489.12
2023-06-10T03:40:32.967Z,97491.52
2023-06-10T03:43:02.018Z,97488.17
2023-06-10T03:45:30.690Z,97483.89
2023-06-10T03:47:59.469Z,97485.02
2023-06-10T03:50:32.781Z,97488.23
2023-06-10T03:53:01.518Z,97489.96
2023-06-10T03:55:29.868Z,97487.91
2023-06-10T03:57:59.387Z,97478.42
2023-06-10T04:00:27.488Z,97473.25
2023-06-10T04:02:59.445Z,97472.32
2023-06-10T04:05:34.305Z,97472.02
2023-06-10T04:08:02.870Z,97476.53
2023-06-10T04:10:31.184Z,97477.59
2023-06-10T04:12:59.691Z,97479.31
2023-06-10T04:15:30.425Z,97480.34
2023-06-10T04:17:59.430Z,97487.54
2023-06-10T04:20:28.555Z,97489.45
2023-06-10T04:22:56.739Z,97490.04
2023-06-10T04:25:25.569Z,97489.27
2023-06-10T04:27:53.598Z,97488.84
2023-06-10T04:30:22.429Z,97486.19
2023-06-10T04:32:50.739Z,97493.23
2023-06-10T04:35:19.097Z,97497.70
2023-06-10T04:37:47.699Z,97493.88
2023-06-10T04:40:17.513Z,97496.84
2023-06-10T04:42:46.677Z,97495.75
2023-06-10T04:45:15.225Z,97495.95
2023-06-10T04:47:44.817Z,97487.48
2023-06-10T04:50:13.252Z,97486.78
2023-06-10T04:52:42.802Z,97485.40
2023-06-10T04:55:12.297Z,97484.86
2023-06-10T04:57:40.633Z,97487.23
2023-06-10T05:00:09.606Z,97490.61
2023-06-10T05:02:37.613Z,97493.33
2023-06-10T05:05:07.508Z,97496.34
2023-06-10T05:07:35.837Z,97495.04
2023-06-10T05:10:04.409Z,97498.47
2023-06-10T05:12:32.469Z,97496.35
2023-06-10T05:15:00.626Z,97495.22
2023-06-10T05:17:29.689Z,97494.73
2023-06-10T05:19:58.084Z,97498.84
2023-06-10T05:22:26.276Z,97500.95
2023-06-10T05:24:54.685Z,97503.61
2023-06-10T05:27:23.528Z,97504.01
2023-06-10T05:29:52.760Z,97499.19
2023-06-10T05:32:21.063Z,97495.43
2023-06-10T05:34:49.303Z,97498.32
2023-06-10T05:37:17.265Z,97501.18
2023-06-10T05:39:45.186Z,97504.09
2023-06-10T05:42:13.294Z,97500.80
2023-06-10T05:44:41.539Z,97503.45
2023-06-10T05:47:09.883Z,97505.92
2023-06-10T05:49:37.913Z,97505.33
2023-06-10T05:52:06.188Z,97507.77
2023-06-10T05:54:34.186Z,97512.40
2023-06-10T05:57:02.185Z,97512.73
2023-06-10T05:59:30.154Z,97513.73
2023-06-10T06:01:58.308Z,97510.66
2023-06-10T06:04:26.264Z,97507.05
2023-06-10T06:06:54.461Z,97503.09
2023-06-10T06:09:22.431Z,97503.20
2023-06-10T06:11:50.349Z,97506.44
2023-06-10T06:14:18.619Z,97501.89
2023-06-10T06:16:46.721Z,97499.08
2023-06-10T06:19:14.943Z,97502.96
2023-06-10T06:21:42.901Z,97501.14
2023-06-10T06:24:11.137Z,97500.50
2023-06-10T06:26:39.348Z,97491.56
2023-06-10T06:29:07.317Z,97487.09
2023-06-10T06:31:35.443Z,97485.91
2023-06-10T06:34:03.794Z,97482.17
2023-06-10T06:36:33.046Z,97483.67
2023-06-10T06:39:01.080Z,97483.30
2023-06-10T06:41:29.698Z,97484.77
2023-06-10T06:43:57.700Z,97481.50
2023-06-10T06:46:27.134Z,97482.67
2023-06-10T06:48:55.316Z,97479.17
2023-06-10T06:51:23.791Z,97477.23
2023-06-10T06:53:52.458Z,97477.38
2023-06-10T06:56:20.421Z,97476.98
2023-06-10T06:58:48.575Z,97470.25
2023-06-10T07:01:17.086Z,97468.82
2023-06-10T07:03:45.235Z,97468.71
2023-06-10T07:06:13.902Z,97466.98
2023-06-10T07:08:41.835Z,97462.34
2023-06-10T07:11:10.033Z,97464.75
2023-06-10T07:13:39.955Z,97465.70
2023-06-10T07:16:07.953Z,97460.79
2023-06-10T07:18:36.045Z,97458.31
2023-06-10T07:21:04.156Z,97456.07
2023-06-10T07:23:32.377Z,97459.90
2023-06-10T07:26:00.962Z,97455.58
2023-06-10T07:28:28.956Z,97449.42
2023-06-10T07:30:57.250Z,97450.30
2023-06-10T07:33:25.324Z,97450.89
2023-06-10T07:35:53.554Z,97451.28
2023-06-10T07:38:22.005Z,97450.27
2023-06-10T07:40:50.016Z,97451.20
2023-06-10T07:43:18.251Z,97448.67
2023-06-10T07:45:46.274Z,97447.59
2023-06-10T07:48:14.965Z,97444.29
2023-06-10T07:50:42.907Z,97444.45
2023-06-10T07:53:10.896Z,97446.90
2023-06-10T07:55:39.089Z,97448.79
2023-06-10T07:58:07.270Z,97444.79
2023-06-10T08:00:35.262Z,97443.98
2023-06-10T08:03:03.838Z,97446.88
2023-06-10T08:05:32.105Z,97439.79
2023-06-10T08:08:02.747Z,97439.30
2023-06-10T08:10:32.106Z,97438.65
2023-06-10T08:13:00.217Z,97433.54
2023-06-10T08:15:28.467Z,97433.24
2023-06-10T08:17:57.777Z,97431.06
2023-06-10T08:20:26.185Z,97435.02
2023-06-10T08:22:54.359Z,97434.29
2023-06-10T08:25:23.404Z,97431.66
2023-06-10T08:27:53.214Z,97423.59
2023-06-10T08:30:21.411Z,97420.39
2023-06-10T08:32:49.591Z,97418.50
2023-06-10T08:35:17.552Z,97415.69
2023-06-10T08:37:45.545Z,97413.10
2023-06-10T08:40:13.890Z,97412.75
2023-06-10T08:42:46.802Z,97406.70
2023-06-10T08:45:19.428Z,97402.02
2023-06-10T08:47:52.154Z,97401.52
2023-06-10T08:50:20.556Z,97399.35
2023-06-10T08:52:50.160Z,97398.70
2023-06-10T08:55:32.878Z,97394.24
2023-06-10T08:58:02.125Z,97396.55
2023-06-10T09:00:31.517Z,97394.52
2023-06-10T09:03:04.411Z,97395.23
2023-06-10T09:05:37.838Z,97400.49
2023-06-10T09:08:08.123Z,97396.35
2023-06-10T09:10:36.152Z,97396.86
2023-06-10T09:13:04.237Z,97392.88
2023-06-10T09:15:32.232Z,97387.24
2023-06-10T09:18:01.139Z,97387.81
2023-06-10T09:20:29.234Z,97388.81
2023-06-10T09:22:57.328Z,97383.48
2023-06-10T09:25:35.881Z,97379.52
2023-06-10T09:28:04.284Z,97377.55
2023-06-10T09:30:35.903Z,97378.20
2023-06-10T09:33:10.518Z,97375.19
2023-06-10T09:35:46.321Z,97375.84
2023-06-10T09:38:16.619Z,97374.71
2023-06-10T09:40:49.853Z,97375.40
2023-06-10T09:43:17.784Z,97375.92
2023-06-10T09:45:48.700Z,97371.69
2023-06-10T09:48:17.104Z,97368.66
2023-06-10T09:50:45.903Z,97366.54
2023-06-10T09:53:13.906Z,97365.00
2023-06-10T09:55:42.784Z,97360.00
2023-06-10T09:58:10.772Z,97356.10
2023-06-10T10:00:38.819Z,97354.38
2023-06-10T10:03:08.191Z,97352.89
2023-06-10T10:05:36.545Z,97347.71
2023-06-10T10:08:04.964Z,97344.88
2023-06-10T10:10:33.054Z,97349.42
2023-06-10T10:13:01.738Z,97346.87
2023-06-10T10:15:31.260Z,97343.96
2023-06-10T10:18:04.263Z,97341.59
2023-06-10T10:20:34.844Z,97340.06
2023-06-10T10:23:04.853Z,97341.15
2023-06-10T10:25:43.853Z,97336.44
2023-06-10T10:28:13.065Z,97337.11
2023-06-10T10:30:43.289Z,97338.06
2023-06-10T10:33:20.015Z,97337.93
2023-06-10T10:35:48.534Z,97333.80
2023-06-10T10:38:17.282Z,97331.02
2023-06-10T10:40:46.075Z,97332.58
2023-06-10T10:43:15.690Z,97334.92
2023-06-10T10:45:46.423Z,97330.60
2023-06-10T10:48:16.324Z,97331.66
2023-06-10T10:50:44.686Z,97324.52
2023-06-10T10:53:21.152Z,97317.45
2023-06-10T10:55:59.302Z,97317.47
2023-06-10T10:58:27.369Z,97315.95
2023-06-10T11:00:56.022Z,97310.08
2023-06-10T11:03:29.112Z,97306.25
2023-06-10T11:06:00.313Z,97307.38
2023-06-10T11:08:34.697Z,97309.70
2023-06-10T11:11:18.511Z,97301.72
2023-06-10T11:13:59.339Z,97301.41
2023-06-10T11:16:28.613Z,97307.55
2023-06-10T11:18:57.724Z,97308.71
2023-06-10T11:21:29.063Z,97314.33
2023-06-10T11:23:59.617Z,97317.96
2023-06-10T11:26:28.165Z,97317.81
2023-06-10T11:28:56.447Z,97320.17
2023-06-10T11:31:26.182Z,97323.93
2023-06-10T11:34:01.954Z,97325.05
2023-06-10T11:36:30.614Z,97327.52
2023-06-10T11:39:00.285Z,97323.25
2023-06-10T11:41:30.144Z,97329.20
2023-06-10T11:44:01.973Z,97330.77
2023-06-10T11:46:30.177Z,97324.67
2023-06-10T11:48:59.439Z,97318.07
2023-06-10T11:51:28.746Z,97319.55
2023-06-10T11:53:56.968Z,97309.94
2023-06-10T11:56:27.007Z,97296.73
2023-06-10T11:59:05.639Z,97294.13
2023-06-10T12:01:35.034Z,97299.71
2023-06-10T12:04:06.213Z,97298.89
2023-06-10T12:06:41.322Z,97298.59
2023-06-10T12:09:24.108Z,97290.73
2023-06-10T12:11:55.505Z,97293.52
2023-06-10T12:14:42.078Z,97295.73
2023-06-10T12:17:10.273Z,97294.39
2023-06-10T12:19:41.630Z,97296.82
2023-06-10T12:22:10.174Z,97295.67
2023-06-10T12:24:45.815Z,97294.67
2023-06-10T12:27:14.239Z,97294.91
2023-06-10T12:29:52.747Z,97296.53
2023-06-10T12:32:24.177Z,97294.73
2023-06-10T12:35:03.216Z,97288.65
2023-06-10T12:37:31.496Z,97286.58
2023-06-10T12:40:01.253Z,97286.36
2023-06-10T12:42:29.428Z,97280.72
2023-06-10T12:45:01.479Z,97275.84
2023-06-10T12:47:36.340Z,97267.82
2023-06-10T12:50:05.521Z,97263.58
2023-06-10T12:52:33.809Z,97257.65
2023-06-10T12:55:02.444Z,97250.20
2023-06-10T12:57:31.293Z,97245.23
2023-06-10T13:00:05.308Z,97246.31
2023-06-10T13:02:33.966Z,97238.33
2023-06-10T13:05:04.043Z,97234.07
2023-06-10T13:07:32.475Z,97232.17
2023-06-10T13:10:00.494Z,97236.23
2023-06-10T13:12:46.305Z,97227.32
2023-06-10T13:15:16.379Z,97224.00
2023-06-10T13:17:46.858Z,97226.86
2023-06-10T13:20:15.231Z,97231.63
2023-06-10T13:22:44.122Z,97232.27
2023-06-10T13:25:12.793Z,97224.81
2023-06-10T13:27:42.544Z,97221.58
2023-06-10T13:30:12.104Z,97224.74
2023-06-10T13:32:40.488Z,97226.45
2023-06-10T13:35:09.662Z,97219.77
2023-06-10T13:37:38.433Z,97212.55
2023-06-10T13:40:07.465Z,97211.66
2023-06-10T13:42:37.050Z,97210.86
2023-06-10T13:45:06.308Z,97204.09
2023-06-10T13:47:34.349Z,97195.27
2023-06-10T13:50:03.416Z,97194.81
2023-06-10T13:52:31.514Z,97191.27
2023-06-10T13:54:59.575Z,97194.85
2023-06-10T13:57:27.597Z,97199.64
2023-06-10T13:59:57.531Z,97209.33
2023-06-10T14:02:25.866Z,97210.99
2023-06-10T14:04:53.996Z,97211.39
2023-06-10T14:07:21.958Z,97205.02
2023-06-10T14:09:50.001Z,97203.27
2023-06-10T14:12:18.144Z,97202.77
2023-06-10T14:14:46.267Z,97200.84
2023-06-10T14:17:14.333Z,97204.47
2023-06-10T14:19:42.557Z,97200.28
2023-06-10T14:22:10.844Z,97197.39
2023-06-10T14:24:39.482Z,97196.05
2023-06-10T14:27:08.135Z,97189.48
2023-06-10T14:29:36.782Z,97186.85
2023-06-10T14:32:07.462Z,97185.16
2023-06-10T14:34:37.475Z,97188.36
2023-06-10T14:37:08.746Z,97191.48
2023-06-10T14:39:37.422Z,97192.63
2023-06-10T14:42:06.169Z,97188.68
2023-06-10T14:44:34.061Z,97190.53
2023-06-10T14:47:02.042Z,97190.02
2023-06-10T14:49:30.133Z,97185.65
2023-06-10T14:51:58.559Z,97186.78
2023-06-10T14:54:27.006Z,97185.45
2023-06-10T14:56:55.392Z,97187.48
2023-06-10T14:59:24.882Z,97186.55
2023-06-10T15:01:53.246Z,97187.87
2023-06-10T15:04:24.541Z,97188.20
2023-06-10T15:06:53.216Z,97189.82
2023-06-10T15:09:21.744Z,97190.83
2023-06-10T15:11:49.966Z,97187.47
2023-06-10T15:14:18.746Z,97185.13
2023-06-10T15:16:46.883Z,97187.94
2023-06-10T15:19:15.340Z,97191.63
2023-06-10T15:21:43.521Z,97199.52
2023-06-10T15:24:12.290Z,97212.91
2023-06-10T15:26:41.295Z,97206.65
2023-06-10T15:29:14.015Z,97201.43
2023-06-10T15:31:43.034Z,97202.70
2023-06-10T15:34:11.331Z,97199.20
2023-06-10T15:36:39.581Z,97202.84
2023-06-10T15:39:08.309Z,97200.13
2023-06-10T15:41:36.625Z,97201.35
2023-06-10T15:44:05.033Z,97200.16
2023-06-10T15:46:35.457Z,97197.80
2023-06-10T15:49:04.166Z,97198.74
2023-06-10T15:51:32.477Z,97201.23
2023-06-10T15:54:00.443Z,97199.45
2023-06-10T15:56:28.669Z,97200.63
2023-06-10T15:58:56.848Z,97203.27
2023-06-10T16:01:25.106Z,97207.08
2023-06-10T16:03:53.339Z,97211.52
2023-06-10T16:06:21.533Z,97210.90
2023-06-10T16:08:49.491Z,97214.09
2023-06-10T16:11:18.324Z,97219.33
2023-06-10T16:13:46.515Z,97227.60
2023-06-10T16:16:14.989Z,97229.52
2023-06-10T16:18:43.252Z,97230.61
2023-06-10T16:21:11.335Z,97234.58
2023-06-10T16:23:40.198Z,97230.64
2023-06-10T16:26:08.390Z,97229.08
2023-06-10T16:28:36.397Z,97228.77
2023-06-10T16:31:04.869Z,97224.70
2023-06-10T16:33:33.315Z,97226.48
2023-06-10T16:36:01.508Z,97226.55
2023-06-10T16:38:29.724Z,97233.13
2023-06-10T16:40:58.612Z,97239.02
2023-06-10T16:43:27.853Z,97244.23
2023-06-10T16:45:58.269Z,97249.99
2023-06-10T16:48:26.595Z,97260.52
2023-06-10T16:50:54.708Z,97266.60
2023-06-10T16:53:22.767Z,97273.24
2023-06-10T16:55:51.012Z,97276.94
2023-06-10T16:58:19.065Z,97278.30
2023-06-10T17:00:47.462Z,97277.20
2023-06-10T17:03:15.680Z,97279.33
2023-06-10T17:05:43.910Z,97280.27
2023-06-10T17:08:12.164Z,97281.02
2023-06-10T17:10:40.292Z,97280.61
2023-06-10T17:13:08.256Z,97280.85
2023-06-10T17:15:36.472Z,97281.77
2023-06-10T17:18:05.291Z,97279.96
2023-06-10T17:20:33.923Z,97279.89
2023-06-10T17:23:02.625Z,97282.14
2023-06-10T17:25:31.209Z,97282.84
2023-06-10T17:27:59.351Z,97289.38
2023-06-10T17:30:27.698Z,97301.98
2023-06-10T17:32:56.295Z,97308.94
2023-06-10T17:35:24.539Z,97310.64
2023-06-10T17:37:53.109Z,97309.02
2023-06-10T17:40:21.079Z,97319.27
2023-06-10T17:42:49.019Z,97326.45
2023-06-10T17:45:17.269Z,97326.06
2023-06-10T17:47:45.476Z,97319.93
2023-06-10T17:50:15.737Z,97322.13
2023-06-10T17:52:45.264Z,97334.16
2023-06-10T17:55:13.411Z,97342.23
2023-06-10T17:57:41.930Z,97343.07
2023-06-10T18:00:10.114Z,97345.29
2023-06-10T18:02:39.644Z,97351.38
2023-06-10T18:05:08.529Z,97354.55
2023-06-10T18:07:36.806Z,97353.34
2023-06-10T18:10:05.011Z,97351.73
2023-06-10T18:12:33.304Z,97349.35
2023-06-10T18:15:01.295Z,97348.55
2023-06-10T18:17:29.774Z,97351.94
2023-06-10T18:19:57.879Z,97358.38
2023-06-10T18:22:26.099Z,97355.38
2023-06-10T18:24:54.750Z,97357.89
2023-06-10T18:27:23.001Z,97354.88
2023-06-10T18:29:51.223Z,97358.44
2023-06-10T18:32:19.613Z,97361.09
2023-06-10T18:34:47.833Z,97364.66
2023-06-10T18:37:17.064Z,97367.10
2023-06-10T18:39:45.052Z,97370.80
2023-06-10T18:42:13.216Z,97367.75
2023-06-10T18:44:41.380Z,97369.27
2023-06-10T18:47:09.299Z,97376.60
2023-06-10T18:49:38.752Z,97380.50
2023-06-10T18:52:07.066Z,97381.61
2023-06-10T18:54:36.167Z,97384.73
2023-06-10T18:57:04.484Z,97385.34
2023-06-10T18:59:32.641Z,97384.71
2023-06-10T19:02:00.809Z,97380.44
2023-06-10T19:04:29.350Z,97384.04
2023-06-10T19:06:57.295Z,97385.91
2023-06-10T19:09:25.453Z,97392.14
2023-06-10T19:11:53.488Z,97392.14
2023-06-10T19:14:21.707Z,97392.89
2023-06-10T19:16:49.812Z,97400.81
2023-06-10T19:19:18.393Z,97400.21
2023-06-10T19:21:46.518Z,97398.55
2023-06-10T19:24:14.725Z,97405.46
2023-06-10T19:26:42.860Z,97411.17
2023-06-10T19:29:11.087Z,97409.99
2023-06-10T19:31:39.173Z,97406.24
2023-06-10T19:34:07.460Z,97402.95
2023-06-10T19:36:35.555Z,97403.16
2023-06-10T19:39:03.865Z,97405.64
2023-06-10T19:41:31.833Z,97406.55
2023-06-10T19:43:59.798Z,97405.64
2023-06-10T19:46:27.811Z,97406.48
2023-06-10T19:48:56.262Z,97406.33
2023-06-10T19:51:24.514Z,97408.52
2023-06-10T19:53:52.640Z,97413.26
2023-06-10T19:56:22.982Z,97418.06
2023-06-10T19:58:51.190Z,97420.98
2023-06-10T20:01:19.513Z,97421.16
2023-06-10T20:03:47.668Z,97422.23
2023-06-10T20:06:16.344Z,97421.91
2023-06-10T20:08:44.434Z,97426.63
2023-06-10T20:11:12.774Z,97430.29
2023-06-10T20:13:41.182Z,97428.34
2023-06-10T20:16:10.590Z,97424.61
2023-06-10T20:18:39.204Z,97420.04
2023-06-10T20:21:07.228Z,97423.79
2023-06-10T20:23:35.491Z,97421.02
2023-06-10T20:26:03.763Z,97419.55
2023-06-10T20:28:31.878Z,97418.17
2023-06-10T20:31:01.485Z,97419.83
2023-06-10T20:33:29.605Z,97418.56
2023-06-10T20:35:58.053Z,97413.88
2023-06-10T20:38:26.240Z,97410.59
2023-06-10T20:40:54.376Z,97403.59
2023-06-10T20:43:22.371Z,97400.13
2023-06-10T20:45:50.779Z,97398.66
2023-06-10T20:48:19.141Z,97393.58
2023-06-10T20:50:47.101Z,97398.36
2023-06-10T20:53:15.114Z,97408.73
2023-06-10T20:55:43.114Z,97416.02
2023-06-10T20:58:11.656Z,97416.11
2023-06-10T21:00:39.610Z,97413.77
2023-06-10T21:03:07.817Z,97408.59
2023-06-10T21:05:36.376Z,97406.48
2023-06-10T21:08:04.609Z,97405.73
2023-06-10T21:10:32.688Z,97401.02
2023-06-10T21:13:00.820Z,97402.74
2023-06-10T21:15:28.879Z,97404.83
2023-06-10T21:17:56.970Z,97404.89
2023-06-10T21:20:25.002Z,97406.56
2023-06-10T21:22:53.194Z,97413.64
2023-06-10T21:25:21.405Z,97415.84
2023-06-10T21:27:49.906Z,97420.70
2023-06-10T21:30:18.012Z,97416.19
2023-06-10T21:32:46.270Z,97408.79
2023-06-10T21:35:14.490Z,97409.20
2023-06-10T21:37:42.444Z,97411.29
2023-06-10T21:40:11.101Z,97409.63
2023-06-10T21:42:39.090Z,97410.80
2023-06-10T21:45:08.325Z,97413.29
2023-06-10T21:47:36.951Z,97412.95
2023-06-10T21:50:06.344Z,97413.83
2023-06-10T21:52:34.406Z,97407.89
2023-06-10T21:55:02.626Z,97407.90
2023-06-10T21:57:30.904Z,97409.39
2023-06-10T21:59:59.035Z,97411.82
2023-06-10T22:02:27.527Z,97406.42
2023-06-10T22:04:55.825Z,97402.20
2023-06-10T22:07:25.564Z,97397.70
2023-06-10T22:09:53.782Z,97397.23
2023-06-10T22:12:22.007Z,97392.36
2023-06-10T22:14:49.930Z,97392.08
2023-06-10T22:17:18.300Z,97392.95
2023-06-10T22:19:46.401Z,97390.00
2023-06-10T22:22:14.558Z,97391.45
2023-06-10T22:24:42.569Z,97393.66
2023-06-10T22:27:10.702Z,97400.99
2023-06-10T22:29:38.877Z,97400.27
2023-06-10T22:32:07.420Z,97404.61
2023-06-10T22:34:36.357Z,97406.13
2023-06-10T22:37:04.796Z,97403.08
2023-06-10T22:39:33.365Z,97402.58
2023-06-10T22:42:01.475Z,97400.09
2023-06-10T22:44:29.499Z,97406.86
2023-06-10T22:46:57.826Z,97409.80
2023-06-10T22:49:26.244Z,97408.16
2023-06-10T22:51:54.258Z,97405.92
2023-06-10T22:54:22.145Z,97404.76
2023-06-10T22:56:50.254Z,97406.29
2023-06-10T22:59:18.198Z,97405.52
2023-06-10T23:01:46.200Z,97402.24
2023-06-10T23:04:14.720Z,97406.74
2023-06-10T23:06:43.088Z,97406.66
2023-06-10T23:09:11.641Z,97404.27
2023-06-10T23:11:39.856Z,97401.11
2023-06-10T23:14:09.705Z,97403.40
2023-06-10T23:16:46.754Z,97398.58
2023-06-10T23:19:19.397Z,97397.48
2023-06-10T23:21:54.922Z,97398.48
2023-06-10T23:24:28.713Z,97407.25
2023-06-10T23:26:57.413Z,97403.56
2023-06-10T23:29:26.266Z,97398.77
2023-06-10T23:31:54.886Z,97399.31
2023-06-10T23:34:23.317Z,97395.47
2023-06-10T23:36:53.869Z,97396.48
2023-06-10T23:39:23.517Z,97400.27
2023-06-10T23:41:51.950Z,97395.77
2023-06-10T23:44:19.949Z,97395.55
2023-06-10T23:46:48.113Z,97394.23
2023-06-10T23:49:16.143Z,97395.36
2023-06-10T23:51:44.155Z,97394.67
2023-06-10T23:54:13.919Z,97397.31
2023-06-10T23:56:42.231Z,97391.60
2023-06-10T23:59:10.539Z,97389.11
